createdAt,value
2018-11-06T00:00:13.299Z,82.40
2018-11-06T00:00:48.762Z,82.10
2018-11-06T00:01:21.358Z,81.90
2018-11-06T00:01:53.962Z,81.80
2018-11-06T00:02:26.595Z,81.90
2018-11-06T00:03:04.698Z,81.70
2018-11-06T00:03:42.975Z,81.90
2018-11-06T00:04:15.601Z,81.90
2018-11-06T00:04:53.743Z,82.30
2018-11-06T00:05:26.348Z,81.90
2018-11-06T00:05:58.959Z,81.90
2018-11-06T00:06:31.762Z,81.90
2018-11-06T00:07:04.362Z,81.80
2018-11-06T00:07:36.968Z,81.80
2018-11-06T00:08:09.584Z,81.90
2018-11-06T00:08:42.218Z,82.00
2018-11-06T00:09:14.872Z,82.00
2018-11-06T00:09:47.681Z,81.50
2018-11-06T00:10:20.274Z,81.40
2018-11-06T00:10:52.886Z,81.60
2018-11-06T00:11:25.519Z,81.60
2018-11-06T00:11:58.110Z,82.00
2018-11-06T00:12:30.720Z,82.10
2018-11-06T00:13:04.387Z,81.30
2018-11-06T00:13:37.360Z,81.40
2018-11-06T00:14:09.961Z,81.20
2018-11-06T00:14:42.565Z,81.50
2018-11-06T00:15:15.174Z,81.70
2018-11-06T00:15:47.816Z,81.70
2018-11-06T00:16:20.440Z,81.50
2018-11-06T00:16:53.031Z,81.30
2018-11-06T00:17:25.614Z,81.60
2018-11-06T00:17:58.195Z,81.60
2018-11-06T00:18:30.802Z,82.00
2018-11-06T00:19:03.421Z,81.90
2018-11-06T00:19:36.003Z,82.00
2018-11-06T00:20:10.691Z,82.20
2018-11-06T00:20:43.320Z,81.80
2018-11-06T00:21:15.929Z,81.90
2018-11-06T00:21:48.524Z,81.80
2018-11-06T00:22:21.201Z,81.90
2018-11-06T00:22:53.825Z,81.70
2018-11-06T00:23:26.410Z,81.90
2018-11-06T00:23:59.003Z,81.90
2018-11-06T00:24:31.619Z,81.70
2018-11-06T00:25:05.038Z,81.70
2018-11-06T00:25:37.656Z,82.00
2018-11-06T00:26:10.259Z,82.00
2018-11-06T00:26:42.890Z,82.00
2018-11-06T00:27:15.491Z,81.80
2018-11-06T00:27:48.162Z,82.10
2018-11-06T00:28:20.751Z,82.10
2018-11-06T00:28:53.386Z,82.00
2018-11-06T00:29:26.004Z,82.20
2018-11-06T00:29:58.600Z,82.10
2018-11-06T00:30:31.198Z,82.00
2018-11-06T00:31:03.837Z,81.80
2018-11-06T00:31:36.473Z,82.10
2018-11-06T00:32:09.095Z,83.10
2018-11-06T00:32:42.120Z,82.50
2018-11-06T00:33:14.732Z,82.50
2018-11-06T00:33:47.342Z,82.80
2018-11-06T00:34:19.976Z,82.50
2018-11-06T00:34:52.563Z,83.00
2018-11-06T00:35:25.134Z,82.20
2018-11-06T00:35:57.752Z,82.00
2018-11-06T00:36:30.334Z,82.00
2018-11-06T00:37:02.923Z,81.90
2018-11-06T00:37:35.531Z,81.80
2018-11-06T00:38:08.144Z,82.00
2018-11-06T00:38:40.792Z,82.10
2018-11-06T00:39:13.382Z,82.20
2018-11-06T00:39:45.980Z,81.90
2018-11-06T00:40:18.613Z,82.00
2018-11-06T00:40:51.202Z,82.20
2018-11-06T00:41:23.865Z,82.10
2018-11-06T00:41:56.454Z,82.50
2018-11-06T00:42:29.051Z,82.10
2018-11-06T00:43:01.686Z,82.10
2018-11-06T00:43:34.264Z,81.70
2018-11-06T00:44:07.070Z,81.90
2018-11-06T00:44:39.696Z,81.90
2018-11-06T00:45:13.634Z,82.00
2018-11-06T00:45:46.223Z,82.00
2018-11-06T00:46:18.815Z,81.90
2018-11-06T00:46:51.406Z,81.90
2018-11-06T00:47:23.992Z,82.10
2018-11-06T00:47:56.607Z,82.10
2018-11-06T00:48:29.229Z,82.00
2018-11-06T00:49:01.812Z,82.10
2018-11-06T00:49:34.454Z,82.20
2018-11-06T00:50:08.151Z,82.30
2018-11-06T00:50:40.764Z,82.40
2018-11-06T00:51:13.394Z,82.60
2018-11-06T00:51:45.984Z,82.50
2018-11-06T00:52:18.563Z,82.60
2018-11-06T00:52:51.168Z,82.80
2018-11-06T00:53:23.767Z,82.50
2018-11-06T00:53:56.371Z,82.20
2018-11-06T00:54:29.043Z,82.20
2018-11-06T00:55:01.844Z,82.20
2018-11-06T00:55:34.524Z,82.70
2018-11-06T00:56:07.156Z,82.10
2018-11-06T00:56:39.714Z,82.00
2018-11-06T00:57:12.315Z,82.00
2018-11-06T00:57:44.920Z,82.00
2018-11-06T00:58:17.556Z,82.00
2018-11-06T00:58:50.132Z,81.80
2018-11-06T00:59:22.726Z,81.60
2018-11-06T00:59:55.387Z,81.80
2018-11-06T01:00:28.073Z,81.90
2018-11-06T01:01:00.695Z,81.90
2018-11-06T01:01:33.287Z,81.90
2018-11-06T01:02:06.260Z,81.80
2018-11-06T01:02:38.887Z,82.10
2018-11-06T01:03:11.499Z,82.10
2018-11-06T01:03:48.873Z,82.00
2018-11-06T01:04:21.475Z,81.80
2018-11-06T01:04:54.052Z,81.90
2018-11-06T01:05:26.631Z,81.70
2018-11-06T01:05:59.256Z,81.50
2018-11-06T01:06:31.844Z,81.50
2018-11-06T01:07:04.612Z,81.60
2018-11-06T01:07:37.196Z,81.70
2018-11-06T01:08:09.787Z,81.60
2018-11-06T01:08:42.412Z,81.70
2018-11-06T01:09:15.872Z,81.80
2018-11-06T01:09:48.594Z,81.70
2018-11-06T01:10:21.220Z,81.90
2018-11-06T01:10:53.824Z,81.80
2018-11-06T01:11:26.623Z,81.90
2018-11-06T01:11:59.319Z,82.30
2018-11-06T01:12:31.892Z,82.40
2018-11-06T01:13:04.671Z,82.50
2018-11-06T01:13:37.248Z,82.30
2018-11-06T01:14:09.863Z,82.10
2018-11-06T01:14:42.508Z,81.80
2018-11-06T01:15:15.909Z,81.90
2018-11-06T01:15:48.553Z,81.50
2018-11-06T01:16:21.591Z,81.80
2018-11-06T01:16:54.222Z,82.10
2018-11-06T01:17:26.832Z,82.00
2018-11-06T01:17:59.399Z,81.90
2018-11-06T01:18:31.967Z,81.60
2018-11-06T01:19:04.870Z,81.90
2018-11-06T01:19:37.485Z,81.70
2018-11-06T01:20:12.320Z,82.00
2018-11-06T01:20:44.918Z,82.00
2018-11-06T01:21:17.485Z,82.10
2018-11-06T01:21:50.121Z,82.40
2018-11-06T01:22:23.552Z,81.90
2018-11-06T01:22:56.177Z,81.80
2018-11-06T01:23:28.745Z,81.90
2018-11-06T01:24:01.361Z,82.00
2018-11-06T01:24:33.990Z,82.70
2018-11-06T01:25:07.381Z,82.10
2018-11-06T01:25:39.960Z,81.80
2018-11-06T01:26:12.539Z,81.80
2018-11-06T01:26:45.106Z,81.70
2018-11-06T01:27:17.721Z,81.70
2018-11-06T01:27:50.360Z,81.40
2018-11-06T01:28:22.947Z,81.10
2018-11-06T01:28:55.581Z,81.00
2018-11-06T01:29:28.196Z,81.30
2018-11-06T01:30:00.783Z,81.70
2018-11-06T01:30:33.372Z,81.50
2018-11-06T01:31:05.986Z,81.50
2018-11-06T01:31:38.567Z,81.20
2018-11-06T01:32:11.171Z,80.90
2018-11-06T01:32:44.547Z,81.00
2018-11-06T01:33:17.155Z,80.70
2018-11-06T01:33:49.719Z,80.50
2018-11-06T01:34:22.307Z,80.50
2018-11-06T01:34:54.906Z,80.40
2018-11-06T01:35:27.503Z,80.50
2018-11-06T01:36:00.137Z,80.60
2018-11-06T01:36:32.713Z,80.60
2018-11-06T01:37:05.354Z,80.60
2018-11-06T01:37:37.918Z,80.90
2018-11-06T01:38:10.529Z,80.40
2018-11-06T01:38:43.154Z,80.30
2018-11-06T01:39:15.719Z,80.50
2018-11-06T01:39:48.316Z,80.30
2018-11-06T01:40:20.896Z,80.30
2018-11-06T01:40:53.470Z,80.30
2018-11-06T01:41:26.039Z,80.50
2018-11-06T01:41:58.648Z,80.80
2018-11-06T01:42:31.211Z,80.60
2018-11-06T01:43:03.822Z,80.50
2018-11-06T01:43:36.410Z,80.50
2018-11-06T01:44:09.061Z,80.70
2018-11-06T01:44:41.654Z,80.70
2018-11-06T01:45:15.584Z,80.90
2018-11-06T01:45:48.315Z,80.70
2018-11-06T01:46:20.952Z,80.70
2018-11-06T01:46:53.553Z,80.90
2018-11-06T01:47:26.130Z,80.50
2018-11-06T01:47:58.715Z,80.80
2018-11-06T01:48:31.284Z,80.70
2018-11-06T01:49:03.906Z,80.70
2018-11-06T01:49:36.499Z,80.70
2018-11-06T01:50:11.659Z,80.60
2018-11-06T01:50:44.222Z,80.50
2018-11-06T01:51:16.791Z,80.50
2018-11-06T01:51:49.397Z,80.40
2018-11-06T01:52:21.967Z,80.50
2018-11-06T01:52:54.530Z,80.60
2018-11-06T01:53:27.138Z,80.40
2018-11-06T01:53:59.717Z,80.60
2018-11-06T01:54:32.280Z,80.60
2018-11-06T01:55:05.414Z,80.60
2018-11-06T01:55:37.986Z,80.50
2018-11-06T01:56:10.601Z,80.40
2018-11-06T01:56:43.158Z,80.20
2018-11-06T01:57:15.772Z,80.20
2018-11-06T01:57:48.369Z,80.30
2018-11-06T01:58:20.950Z,80.20
2018-11-06T01:58:53.588Z,80.00
2018-11-06T01:59:26.216Z,79.90
2018-11-06T01:59:58.838Z,79.70
2018-11-06T02:00:31.485Z,79.60
2018-11-06T02:01:04.211Z,79.80
2018-11-06T02:01:36.787Z,79.60
2018-11-06T02:02:09.398Z,79.70
2018-11-06T02:02:41.999Z,79.60
2018-11-06T02:03:14.584Z,79.60
2018-11-06T02:03:47.172Z,79.40
2018-11-06T02:04:19.763Z,79.60
2018-11-06T02:04:52.367Z,79.70
2018-11-06T02:05:24.932Z,79.60
2018-11-06T02:05:57.551Z,79.70
2018-11-06T02:06:30.114Z,79.60
2018-11-06T02:07:02.719Z,79.50
2018-11-06T02:07:35.396Z,79.40
2018-11-06T02:08:07.963Z,79.50
2018-11-06T02:08:40.589Z,79.40
2018-11-06T02:09:13.205Z,79.30
2018-11-06T02:09:45.766Z,79.40
2018-11-06T02:10:18.426Z,79.80
2018-11-06T02:10:50.990Z,79.70
2018-11-06T02:11:23.672Z,79.80
2018-11-06T02:11:56.252Z,79.80
2018-11-06T02:12:28.895Z,79.80
2018-11-06T02:13:01.499Z,79.80
2018-11-06T02:13:34.062Z,79.70
2018-11-06T02:14:06.790Z,79.90
2018-11-06T02:14:39.387Z,79.80
2018-11-06T02:15:12.052Z,79.60
2018-11-06T02:15:44.671Z,79.60
2018-11-06T02:16:17.277Z,79.40
2018-11-06T02:16:49.879Z,79.20
2018-11-06T02:17:22.486Z,79.30
2018-11-06T02:17:55.055Z,79.40
2018-11-06T02:18:27.624Z,78.60
2018-11-06T02:19:00.244Z,79.10
2018-11-06T02:19:32.826Z,79.40
2018-11-06T02:20:05.650Z,79.30
2018-11-06T02:20:38.234Z,79.40
2018-11-06T02:21:11.096Z,79.30
2018-11-06T02:21:43.730Z,79.10
2018-11-06T02:22:16.356Z,79.40
2018-11-06T02:22:48.963Z,79.60
2018-11-06T02:23:21.542Z,79.90
2018-11-06T02:23:54.159Z,79.90
2018-11-06T02:24:26.734Z,79.90
2018-11-06T02:24:59.335Z,79.50
2018-11-06T02:25:31.941Z,79.40
2018-11-06T02:26:04.550Z,79.30
2018-11-06T02:26:37.173Z,79.40
2018-11-06T02:27:09.780Z,79.30
2018-11-06T02:27:42.390Z,79.30
2018-11-06T02:28:14.969Z,79.60
2018-11-06T02:28:47.560Z,79.70
2018-11-06T02:29:20.139Z,79.70
2018-11-06T02:29:52.791Z,79.60
2018-11-06T02:30:25.428Z,79.60
2018-11-06T02:30:57.996Z,79.60
2018-11-06T02:31:30.620Z,79.70
2018-11-06T02:32:03.271Z,79.70
2018-11-06T02:32:36.014Z,79.90
2018-11-06T02:33:08.579Z,79.60
2018-11-06T02:33:41.188Z,79.70
2018-11-06T02:34:14.178Z,79.80
2018-11-06T02:34:46.760Z,79.70
2018-11-06T02:35:19.392Z,79.50
2018-11-06T02:35:52.013Z,79.30
2018-11-06T02:36:24.585Z,79.40
2018-11-06T02:36:57.156Z,79.40
2018-11-06T02:37:29.768Z,79.10
2018-11-06T02:38:02.351Z,79.20
2018-11-06T02:38:34.954Z,79.30
2018-11-06T02:39:08.689Z,79.60
2018-11-06T02:39:41.307Z,79.80
2018-11-06T02:40:15.016Z,80.10
2018-11-06T02:40:47.587Z,80.10
2018-11-06T02:41:20.216Z,80.10
2018-11-06T02:41:52.787Z,80.20
2018-11-06T02:42:25.398Z,80.20
2018-11-06T02:42:57.990Z,80.20
2018-11-06T02:43:30.552Z,80.20
2018-11-06T02:44:03.192Z,80.20
2018-11-06T02:44:35.763Z,80.30
2018-11-06T02:45:09.202Z,80.40
2018-11-06T02:45:41.806Z,80.50
2018-11-06T02:46:14.402Z,80.40
2018-11-06T02:46:47.011Z,80.30
2018-11-06T02:47:19.614Z,80.40
2018-11-06T02:47:52.178Z,80.50
2018-11-06T02:48:24.748Z,80.50
2018-11-06T02:48:57.320Z,80.40
2018-11-06T02:49:29.981Z,80.40
2018-11-06T02:50:02.680Z,80.40
2018-11-06T02:50:35.306Z,80.30
2018-11-06T02:51:07.917Z,80.30
2018-11-06T02:51:40.495Z,80.20
2018-11-06T02:52:13.063Z,80.30
2018-11-06T02:52:45.636Z,80.40
2018-11-06T02:53:18.283Z,80.40
2018-11-06T02:53:50.896Z,80.50
2018-11-06T02:54:23.506Z,80.50
2018-11-06T02:54:56.099Z,80.60
2018-11-06T02:55:28.666Z,80.60
2018-11-06T02:56:01.338Z,80.70
2018-11-06T02:56:33.874Z,80.90
2018-11-06T02:57:06.504Z,81.00
2018-11-06T02:57:39.487Z,80.90
2018-11-06T02:58:12.047Z,81.00
2018-11-06T02:58:44.611Z,81.10
2018-11-06T02:59:17.189Z,81.10
2018-11-06T02:59:49.763Z,81.10
2018-11-06T03:00:22.371Z,81.10
2018-11-06T03:00:54.962Z,81.00
2018-11-06T03:01:27.530Z,81.00
2018-11-06T03:02:00.123Z,81.10
2018-11-06T03:02:32.702Z,80.90
2018-11-06T03:03:05.415Z,80.90
2018-11-06T03:03:38.847Z,80.90
2018-11-06T03:04:11.468Z,80.90
2018-11-06T03:04:44.039Z,80.70
2018-11-06T03:05:16.648Z,80.60
2018-11-06T03:05:49.292Z,80.90
2018-11-06T03:06:21.907Z,80.90
2018-11-06T03:06:54.515Z,81.00
2018-11-06T03:07:27.083Z,81.20
2018-11-06T03:07:59.686Z,81.20
2018-11-06T03:08:32.271Z,81.20
2018-11-06T03:09:06.223Z,81.20
2018-11-06T03:09:38.798Z,81.10
2018-11-06T03:10:12.362Z,81.20
2018-11-06T03:10:44.927Z,81.30
2018-11-06T03:11:17.535Z,81.20
2018-11-06T03:11:50.131Z,81.30
2018-11-06T03:12:22.722Z,81.30
2018-11-06T03:12:55.322Z,81.50
2018-11-06T03:13:27.956Z,81.40
2018-11-06T03:14:00.502Z,81.40
2018-11-06T03:14:33.121Z,81.60
2018-11-06T03:15:06.311Z,81.60
2018-11-06T03:15:38.886Z,81.40
2018-11-06T03:16:11.484Z,81.60
2018-11-06T03:16:44.147Z,81.60
2018-11-06T03:17:16.699Z,81.60
2018-11-06T03:17:49.255Z,81.70
2018-11-06T03:18:21.819Z,81.80
2018-11-06T03:18:54.432Z,81.70
2018-11-06T03:19:27.000Z,81.80
2018-11-06T03:19:59.613Z,81.70
2018-11-06T03:20:32.202Z,81.90
2018-11-06T03:21:04.829Z,81.90
2018-11-06T03:21:37.404Z,81.80
2018-11-06T03:22:10.060Z,82.00
2018-11-06T03:22:43.227Z,81.90
2018-11-06T03:23:15.842Z,81.90
2018-11-06T03:23:48.407Z,82.10
2018-11-06T03:24:20.977Z,82.00
2018-11-06T03:24:53.551Z,82.40
2018-11-06T03:25:26.123Z,81.70
2018-11-06T03:25:58.699Z,81.70
2018-11-06T03:26:31.318Z,81.80
2018-11-06T03:27:04.028Z,81.90
2018-11-06T03:27:36.574Z,82.60
2018-11-06T03:28:09.158Z,82.20
2018-11-06T03:28:41.723Z,82.10
2018-11-06T03:29:14.283Z,82.10
2018-11-06T03:29:46.905Z,82.30
2018-11-06T03:30:19.535Z,82.40
2018-11-06T03:30:52.114Z,82.60
2018-11-06T03:31:24.727Z,82.50
2018-11-06T03:31:57.328Z,82.40
2018-11-06T03:32:30.009Z,82.50
2018-11-06T03:33:02.623Z,82.50
2018-11-06T03:33:35.226Z,82.70
2018-11-06T03:34:07.840Z,83.00
2018-11-06T03:34:40.461Z,83.20
2018-11-06T03:35:13.840Z,83.50
2018-11-06T03:35:46.397Z,83.60
2018-11-06T03:36:18.946Z,83.90
2018-11-06T03:36:51.572Z,83.80
2018-11-06T03:37:24.188Z,83.90
2018-11-06T03:37:56.769Z,83.80
2018-11-06T03:38:29.439Z,83.90
2018-11-06T03:39:02.011Z,83.90
2018-11-06T03:39:34.651Z,84.00
2018-11-06T03:40:07.802Z,84.00
2018-11-06T03:40:40.405Z,84.00
2018-11-06T03:41:12.994Z,84.00
2018-11-06T03:41:45.606Z,84.00
2018-11-06T03:42:18.197Z,84.00
2018-11-06T03:42:50.783Z,83.80
2018-11-06T03:43:23.404Z,83.90
2018-11-06T03:43:56.036Z,83.90
2018-11-06T03:44:28.620Z,83.90
2018-11-06T03:45:01.236Z,83.80
2018-11-06T03:45:33.845Z,83.70
2018-11-06T03:46:06.462Z,83.70
2018-11-06T03:46:39.063Z,83.80
2018-11-06T03:47:11.623Z,83.70
2018-11-06T03:47:44.210Z,83.80
2018-11-06T03:48:16.794Z,83.80
2018-11-06T03:48:49.404Z,83.90
2018-11-06T03:49:22.036Z,84.00
2018-11-06T03:49:54.618Z,84.10
2018-11-06T03:50:27.210Z,84.10
2018-11-06T03:50:59.806Z,84.00
2018-11-06T03:51:32.407Z,84.00
2018-11-06T03:52:05.179Z,84.00
2018-11-06T03:52:37.750Z,84.70
2018-11-06T03:53:10.335Z,84.20
2018-11-06T03:53:42.965Z,84.30
2018-11-06T03:54:15.679Z,84.20
2018-11-06T03:54:48.311Z,84.30
2018-11-06T03:55:20.915Z,84.30
2018-11-06T03:55:53.495Z,84.20
2018-11-06T03:56:26.117Z,84.30
2018-11-06T03:56:58.717Z,84.30
2018-11-06T03:57:31.326Z,84.90
2018-11-06T03:58:03.942Z,84.50
2018-11-06T03:58:36.725Z,84.60
2018-11-06T03:59:09.343Z,84.50
2018-11-06T03:59:41.921Z,84.60
2018-11-06T04:00:15.059Z,84.60
2018-11-06T04:00:47.677Z,84.60
2018-11-06T04:01:20.256Z,84.80
2018-11-06T04:01:52.831Z,84.90
2018-11-06T04:02:25.432Z,84.90
2018-11-06T04:02:58.002Z,85.00
2018-11-06T04:03:30.595Z,85.10
2018-11-06T04:04:03.198Z,85.00
2018-11-06T04:04:35.820Z,84.90
2018-11-06T04:05:08.937Z,84.90
2018-11-06T04:05:41.566Z,84.90
2018-11-06T04:06:14.192Z,84.80
2018-11-06T04:06:46.762Z,84.80
2018-11-06T04:07:19.377Z,84.50
2018-11-06T04:07:51.978Z,84.40
2018-11-06T04:08:24.582Z,84.50
2018-11-06T04:08:57.157Z,84.50
2018-11-06T04:09:29.779Z,84.50
2018-11-06T04:10:02.588Z,84.40
2018-11-06T04:10:35.202Z,84.40
2018-11-06T04:11:08.121Z,84.40
2018-11-06T04:11:41.214Z,84.50
2018-11-06T04:12:13.815Z,84.50
2018-11-06T04:12:46.431Z,85.00
2018-11-06T04:13:19.003Z,84.40
2018-11-06T04:13:51.566Z,84.40
2018-11-06T04:14:24.177Z,84.30
2018-11-06T04:14:56.739Z,84.50
2018-11-06T04:15:29.330Z,84.60
2018-11-06T04:16:01.952Z,84.60
2018-11-06T04:16:34.604Z,84.50
2018-11-06T04:17:07.227Z,84.50
2018-11-06T04:17:40.103Z,84.50
2018-11-06T04:18:12.684Z,84.60
2018-11-06T04:18:45.295Z,84.70
2018-11-06T04:19:17.915Z,84.70
2018-11-06T04:19:50.488Z,84.80
2018-11-06T04:20:23.092Z,84.70
2018-11-06T04:20:55.708Z,84.70
2018-11-06T04:21:33.840Z,84.70
2018-11-06T04:22:06.488Z,84.70
2018-11-06T04:22:39.750Z,84.80
2018-11-06T04:23:12.365Z,84.90
2018-11-06T04:23:44.940Z,84.80
2018-11-06T04:24:17.526Z,84.80
2018-11-06T04:24:50.131Z,84.70
2018-11-06T04:25:22.702Z,84.70
2018-11-06T04:25:55.307Z,84.50
2018-11-06T04:26:27.875Z,84.60
2018-11-06T04:27:00.483Z,84.50
2018-11-06T04:27:33.077Z,84.70
2018-11-06T04:28:05.775Z,84.90
2018-11-06T04:28:38.391Z,85.00
2018-11-06T04:29:11.010Z,85.00
2018-11-06T04:29:43.599Z,84.90
2018-11-06T04:30:16.204Z,84.80
2018-11-06T04:30:48.802Z,85.00
2018-11-06T04:31:21.420Z,85.00
2018-11-06T04:31:54.007Z,85.10
2018-11-06T04:32:26.591Z,85.60
2018-11-06T04:32:59.186Z,85.00
2018-11-06T04:33:31.849Z,85.30
2018-11-06T04:34:04.780Z,85.20
2018-11-06T04:34:37.370Z,85.40
2018-11-06T04:35:10.623Z,85.40
2018-11-06T04:35:43.223Z,85.50
2018-11-06T04:36:15.795Z,85.40
2018-11-06T04:36:48.387Z,85.40
2018-11-06T04:37:20.997Z,85.40
2018-11-06T04:37:53.583Z,85.50
2018-11-06T04:38:26.229Z,85.60
2018-11-06T04:38:59.310Z,85.90
2018-11-06T04:39:31.902Z,85.90
2018-11-06T04:40:05.487Z,85.90
2018-11-06T04:40:38.078Z,85.90
2018-11-06T04:41:10.680Z,85.70
2018-11-06T04:41:43.328Z,85.90
2018-11-06T04:42:15.926Z,85.90
2018-11-06T04:42:48.503Z,85.80
2018-11-06T04:43:21.106Z,86.00
2018-11-06T04:43:53.745Z,86.20
2018-11-06T04:44:26.338Z,86.30
2018-11-06T04:44:58.966Z,86.30
2018-11-06T04:45:31.590Z,86.50
2018-11-06T04:46:04.539Z,86.60
2018-11-06T04:46:37.107Z,86.50
2018-11-06T04:47:09.683Z,86.60
2018-11-06T04:47:42.503Z,87.40
2018-11-06T04:48:15.082Z,86.60
2018-11-06T04:48:47.738Z,86.80
2018-11-06T04:49:20.343Z,86.60
2018-11-06T04:49:53.263Z,86.90
2018-11-06T04:50:25.835Z,86.80
2018-11-06T04:50:58.457Z,87.20
2018-11-06T04:51:31.066Z,86.90
2018-11-06T04:52:03.825Z,87.10
2018-11-06T04:52:36.460Z,87.00
2018-11-06T04:53:09.039Z,86.90
2018-11-06T04:53:41.654Z,86.90
2018-11-06T04:54:14.265Z,86.80
2018-11-06T04:54:46.846Z,86.80
2018-11-06T04:55:19.431Z,87.00
2018-11-06T04:55:51.991Z,86.90
2018-11-06T04:56:24.599Z,86.80
2018-11-06T04:56:57.206Z,86.20
2018-11-06T04:57:29.919Z,85.40
2018-11-06T04:58:02.523Z,84.60
2018-11-06T04:58:35.106Z,84.40
2018-11-06T04:59:07.744Z,83.50
2018-11-06T04:59:40.346Z,83.30
2018-11-06T05:00:14.186Z,83.20
2018-11-06T05:00:46.759Z,82.80
2018-11-06T05:01:19.406Z,82.40
2018-11-06T05:01:52.039Z,82.90
2018-11-06T05:02:24.628Z,82.30
2018-11-06T05:02:57.215Z,82.20
2018-11-06T05:03:29.807Z,82.10
2018-11-06T05:04:02.415Z,82.10
2018-11-06T05:04:35.023Z,82.20
2018-11-06T05:05:08.164Z,82.20
2018-11-06T05:05:40.782Z,82.10
2018-11-06T05:06:13.790Z,82.10
2018-11-06T05:06:46.409Z,82.20
2018-11-06T05:07:18.977Z,82.20
2018-11-06T05:07:51.551Z,81.70
2018-11-06T05:08:24.134Z,81.30
2018-11-06T05:08:56.734Z,81.50
2018-11-06T05:09:29.314Z,81.80
2018-11-06T05:10:02.747Z,81.70
2018-11-06T05:10:35.312Z,81.80
2018-11-06T05:11:07.969Z,81.90
2018-11-06T05:11:40.534Z,81.90
2018-11-06T05:12:13.184Z,82.20
2018-11-06T05:12:45.777Z,82.40
2018-11-06T05:13:18.404Z,82.10
2018-11-06T05:13:51.037Z,82.40
2018-11-06T05:14:23.665Z,82.50
2018-11-06T05:14:56.216Z,82.80
2018-11-06T05:15:28.821Z,82.70
2018-11-06T05:16:01.374Z,83.30
2018-11-06T05:16:33.974Z,83.20
2018-11-06T05:17:06.566Z,83.00
2018-11-06T05:17:39.149Z,82.70
2018-11-06T05:18:11.722Z,82.70
2018-11-06T05:18:44.336Z,82.50
2018-11-06T05:19:16.929Z,82.40
2018-11-06T05:19:49.548Z,82.50
2018-11-06T05:20:22.139Z,82.70
2018-11-06T05:20:54.742Z,82.80
2018-11-06T05:21:27.319Z,83.10
2018-11-06T05:21:59.911Z,83.10
2018-11-06T05:22:32.455Z,83.20
2018-11-06T05:23:05.066Z,83.30
2018-11-06T05:23:37.639Z,83.10
2018-11-06T05:24:10.233Z,83.10
2018-11-06T05:24:42.814Z,83.00
2018-11-06T05:25:15.690Z,83.20
2018-11-06T05:25:48.244Z,83.40
2018-11-06T05:26:20.827Z,83.60
2018-11-06T05:26:53.442Z,83.50
2018-11-06T05:27:26.121Z,84.00
2018-11-06T05:27:58.684Z,83.50
2018-11-06T05:28:31.255Z,83.50
2018-11-06T05:29:03.855Z,83.40
2018-11-06T05:29:36.452Z,83.60
2018-11-06T05:30:10.076Z,83.60
2018-11-06T05:30:42.675Z,83.50
2018-11-06T05:31:15.259Z,83.50
2018-11-06T05:31:47.843Z,83.60
2018-11-06T05:32:20.424Z,83.40
2018-11-06T05:32:53.077Z,83.10
2018-11-06T05:33:25.962Z,83.10
2018-11-06T05:33:58.546Z,83.20
2018-11-06T05:34:31.147Z,83.30
2018-11-06T05:35:04.306Z,83.30
2018-11-06T05:35:36.920Z,83.40
2018-11-06T05:36:09.476Z,83.30
2018-11-06T05:36:42.035Z,83.30
2018-11-06T05:37:14.639Z,83.30
2018-11-06T05:37:47.214Z,83.00
2018-11-06T05:38:19.801Z,83.20
2018-11-06T05:38:52.388Z,83.50
2018-11-06T05:39:25.086Z,83.40
2018-11-06T05:40:08.887Z,83.50
2018-11-06T05:40:50.672Z,83.40
2018-11-06T05:41:23.278Z,83.40
2018-11-06T05:41:55.859Z,83.50
2018-11-06T05:42:28.481Z,83.60
2018-11-06T05:43:01.055Z,83.30
2018-11-06T05:43:34.094Z,83.30
2018-11-06T05:44:06.717Z,83.20
2018-11-06T05:44:39.271Z,83.20
2018-11-06T05:45:11.866Z,83.20
2018-11-06T05:45:44.520Z,83.30
2018-11-06T05:46:17.095Z,83.50
2018-11-06T05:46:49.659Z,83.40
2018-11-06T05:47:22.292Z,83.20
2018-11-06T05:47:54.921Z,83.40
2018-11-06T05:48:27.478Z,83.40
2018-11-06T05:49:00.075Z,83.40
2018-11-06T05:49:32.688Z,83.50
2018-11-06T05:50:05.312Z,83.50
2018-11-06T05:50:37.888Z,83.50
2018-11-06T05:51:10.516Z,83.50
2018-11-06T05:51:43.118Z,83.60
2018-11-06T05:52:15.691Z,83.70
2018-11-06T05:52:48.308Z,83.90
2018-11-06T05:53:21.059Z,84.00
2018-11-06T05:53:53.623Z,84.20
2018-11-06T05:54:26.252Z,84.30
2018-11-06T05:54:58.828Z,84.30
2018-11-06T05:55:31.437Z,84.30
2018-11-06T05:56:04.379Z,84.40
2018-11-06T05:56:36.946Z,84.40
2018-11-06T05:57:09.531Z,84.40
2018-11-06T05:57:42.136Z,84.60
2018-11-06T05:58:14.683Z,84.60
2018-11-06T05:58:47.299Z,84.60
2018-11-06T05:59:19.906Z,84.60
2018-11-06T05:59:52.526Z,85.10
2018-11-06T06:00:25.153Z,84.70
2018-11-06T06:00:57.714Z,84.50
2018-11-06T06:01:30.340Z,84.70
2018-11-06T06:02:02.926Z,84.60
2018-11-06T06:02:35.495Z,84.80
2018-11-06T06:03:08.079Z,85.20
2018-11-06T06:03:40.666Z,84.70
2018-11-06T06:04:13.286Z,84.70
2018-11-06T06:04:45.842Z,84.60
2018-11-06T06:05:18.434Z,84.90
2018-11-06T06:05:50.999Z,84.90
2018-11-06T06:06:23.558Z,85.00
2018-11-06T06:06:56.188Z,85.20
2018-11-06T06:07:28.780Z,85.00
2018-11-06T06:08:01.358Z,85.10
2018-11-06T06:08:33.953Z,85.10
2018-11-06T06:09:07.078Z,85.30
2018-11-06T06:09:39.626Z,85.10
2018-11-06T06:10:12.223Z,85.40
2018-11-06T06:10:44.858Z,85.60
2018-11-06T06:11:17.464Z,85.70
2018-11-06T06:11:50.060Z,86.30
2018-11-06T06:12:22.675Z,85.90
2018-11-06T06:12:55.235Z,85.90
2018-11-06T06:13:27.839Z,85.70
2018-11-06T06:14:00.402Z,85.80
2018-11-06T06:14:32.987Z,85.70
2018-11-06T06:15:06.659Z,85.70
2018-11-06T06:15:39.295Z,85.60
2018-11-06T06:16:11.976Z,85.60
2018-11-06T06:16:44.610Z,85.40
2018-11-06T06:17:17.243Z,85.40
2018-11-06T06:17:49.775Z,85.30
2018-11-06T06:18:22.392Z,85.00
2018-11-06T06:18:55.017Z,84.80
2018-11-06T06:19:27.620Z,84.80
2018-11-06T06:20:00.236Z,85.00
2018-11-06T06:20:32.818Z,84.80
2018-11-06T06:21:05.412Z,84.80
2018-11-06T06:21:38.051Z,85.00
2018-11-06T06:22:10.648Z,85.10
2018-11-06T06:22:43.350Z,84.90
2018-11-06T06:23:15.874Z,84.80
2018-11-06T06:23:48.497Z,84.80
2018-11-06T06:24:21.107Z,84.80
2018-11-06T06:24:53.720Z,84.80
2018-11-06T06:25:26.273Z,84.80
2018-11-06T06:25:58.834Z,84.80
2018-11-06T06:26:31.574Z,84.60
2018-11-06T06:27:04.326Z,84.70
2018-11-06T06:27:36.931Z,84.70
2018-11-06T06:28:09.522Z,84.70
2018-11-06T06:28:42.133Z,85.00
2018-11-06T06:29:14.728Z,85.00
2018-11-06T06:29:47.340Z,84.80
2018-11-06T06:30:19.940Z,84.90
2018-11-06T06:30:52.566Z,85.00
2018-11-06T06:31:25.147Z,85.00
2018-11-06T06:31:57.764Z,85.20
2018-11-06T06:32:30.440Z,85.20
2018-11-06T06:33:03.033Z,85.10
2018-11-06T06:33:35.720Z,85.20
2018-11-06T06:34:08.336Z,85.20
2018-11-06T06:34:41.003Z,85.20
2018-11-06T06:35:13.559Z,85.30
2018-11-06T06:35:46.128Z,85.30
2018-11-06T06:36:18.838Z,85.30
2018-11-06T06:36:51.438Z,85.20
2018-11-06T06:37:24.027Z,85.30
2018-11-06T06:37:56.651Z,85.20
2018-11-06T06:38:29.285Z,85.40
2018-11-06T06:39:01.923Z,85.40
2018-11-06T06:39:34.522Z,85.60
2018-11-06T06:40:10.399Z,85.80
2018-11-06T06:40:42.931Z,86.00
2018-11-06T06:41:15.510Z,85.80
2018-11-06T06:41:48.099Z,86.40
2018-11-06T06:42:20.701Z,86.00
2018-11-06T06:42:53.267Z,86.00
2018-11-06T06:43:25.877Z,86.10
2018-11-06T06:43:58.451Z,86.10
2018-11-06T06:44:31.034Z,86.10
2018-11-06T06:45:04.152Z,86.10
2018-11-06T06:45:36.714Z,86.20
2018-11-06T06:46:09.357Z,86.10
2018-11-06T06:46:41.952Z,86.10
2018-11-06T06:47:14.524Z,86.20
2018-11-06T06:47:47.192Z,86.10
2018-11-06T06:48:19.754Z,86.10
2018-11-06T06:48:52.407Z,86.20
2018-11-06T06:49:25.013Z,86.10
2018-11-06T06:49:57.599Z,86.30
2018-11-06T06:50:30.172Z,86.30
2018-11-06T06:51:02.780Z,86.50
2018-11-06T06:51:35.378Z,86.70
2018-11-06T06:52:07.979Z,87.00
2018-11-06T06:52:41.086Z,87.00
2018-11-06T06:53:13.696Z,87.00
2018-11-06T06:53:46.293Z,87.00
2018-11-06T06:54:19.025Z,87.60
2018-11-06T06:54:51.511Z,87.50
2018-11-06T06:55:24.125Z,87.50
2018-11-06T06:55:56.699Z,87.50
2018-11-06T06:56:29.270Z,87.50
2018-11-06T06:57:01.859Z,87.40
2018-11-06T06:57:34.697Z,87.50
2018-11-06T06:58:07.262Z,87.50
2018-11-06T06:58:39.859Z,87.40
2018-11-06T06:59:12.443Z,87.40
2018-11-06T06:59:45.043Z,87.50
2018-11-06T07:00:18.937Z,87.60
2018-11-06T07:00:51.537Z,87.70
2018-11-06T07:01:24.166Z,87.70